Amherst, New Hampshire
Current Conditions -  °F | °C
As of 1:51 PM on Thursday 30 Oct 2014 (Local Time) from KASH Reporting Station
Broken Clouds Broken Clouds  
Wind Chill: 56°   Ceiling: 7000
Heat Index: 56°   Visibility: 10mi
Dew Point: 37°   Wind: 6mph
Humidity: 49%   Direction: 320°NW
Pressure: 29.92"   Gusts: NA
Location:  42.86°N, 71.63°W
Report Text: KASH 301751Z 32005KT 10SM BKN070 13/03 A2992 RMK AO2 56007 T01330027 10144 20016 SLP382
Loading
Personal Weather Stations






























Interactive Weather Map
Tropical Storm Tracking
New forecast layout! Learn more

10-Day Weather Forecast

Advertisements
Track Severe Weather on mobile